sensor_id;sensor_type;location;lat;lon;timestamp;temperature;humidity
22321;DHT22;11328;53.928;18.522;2023-02-02T00:01:42;2.80;99.90
22321;DHT22;11328;53.928;18.522;2023-02-02T00:04:25;2.80;99.90
22321;DHT22;11328;53.928;18.522;2023-02-02T00:06:54;2.90;99.90
22321;DHT22;11328;53.928;18.522;2023-02-02T00:09:22;2.90;99.90
22321;DHT22;11328;53.928;18.522;2023-02-02T00:11:51;2.90;99.90
22321;DHT22;11328;53.928;18.522;2023-02-02T00:14:18;2.90;99.90
22321;DHT22;11328;53.928;18.522;2023-02-02T00:16:49;2.90;99.90
22321;DHT22;11328;53.928;18.522;2023-02-02T00:19:23;2.90;99.90
22321;DHT22;11328;53.928;18.522;2023-02-02T00:21:53;3.10;99.90
22321;DHT22;11328;53.928;18.522;2023-02-02T00:24:20;3.10;99.90
22321;DHT22;11328;53.928;18.522;2023-02-02T00:26:53;3.10;99.90
22321;DHT22;11328;53.928;18.522;2023-02-02T00:29:29;3.10;99.90
22321;DHT22;11328;53.928;18.522;2023-02-02T00:31:57;3.10;99.90
22321;DHT22;11328;53.928;18.522;2023-02-02T00:34:24;3.10;99.90
22321;DHT22;11328;53.928;18.522;2023-02-02T00:36:51;3.20;99.90
22321;DHT22;11328;53.928;18.522;2023-02-02T00:39:21;3.30;99.90
22321;DHT22;11328;53.928;18.522;2023-02-02T00:41:51;3.30;99.90
22321;DHT22;11328;53.928;18.522;2023-02-02T00:44:19;3.30;99.90
22321;DHT22;11328;53.928;18.522;2023-02-02T00:47:04;3.40;99.90
22321;DHT22;11328;53.928;18.522;2023-02-02T00:49:31;3.40;99.90
22321;DHT22;11328;53.928;18.522;2023-02-02T00:52:01;3.50;99.90
22321;DHT22;11328;53.928;18.522;2023-02-02T00:54:28;3.40;99.90
22321;DHT22;11328;53.928;18.522;2023-02-02T00:56:55;3.50;99.90
22321;DHT22;11328;53.928;18.522;2023-02-02T00:59:22;3.50;99.90
22321;DHT22;11328;53.928;18.522;2023-02-02T01:01:49;3.50;99.90
22321;DHT22;11328;53.928;18.522;2023-02-02T01:04:15;3.50;99.90
22321;DHT22;11328;53.928;18.522;2023-02-02T01:06:42;3.40;99.90
22321;DHT22;11328;53.928;18.522;2023-02-02T01:09:09;3.50;99.90
22321;DHT22;11328;53.928;18.522;2023-02-02T01:11:36;3.50;99.90
22321;DHT22;11328;53.928;18.522;2023-02-02T01:14:04;3.50;99.90
22321;DHT22;11328;53.928;18.522;2023-02-02T01:16:31;3.40;99.90
22321;DHT22;11328;53.928;18.522;2023-02-02T01:18:58;3.50;99.90
22321;DHT22;11328;53.928;18.522;2023-02-02T01:21:25;3.50;99.90
22321;DHT22;11328;53.928;18.522;2023-02-02T01:23:51;3.50;99.90
22321;DHT22;11328;53.928;18.522;2023-02-02T01:26:18;3.60;99.90
22321;DHT22;11328;53.928;18.522;2023-02-02T01:28:46;3.70;99.90
22321;DHT22;11328;53.928;18.522;2023-02-02T01:31:15;3.70;99.90
22321;DHT22;11328;53.928;18.522;2023-02-02T01:33:47;3.70;99.90
22321;DHT22;11328;53.928;18.522;2023-02-02T01:36:19;3.70;99.90
22321;DHT22;11328;53.928;18.522;2023-02-02T01:38:48;3.70;99.90
22321;DHT22;11328;53.928;18.522;2023-02-02T01:41:21;3.70;99.90
22321;DHT22;11328;53.928;18.522;2023-02-02T01:43:55;3.70;99.90
22321;DHT22;11328;53.928;18.522;2023-02-02T01:46:29;3.60;99.90
22321;DHT22;11328;53.928;18.522;2023-02-02T01:49:09;3.70;99.90
22321;DHT22;11328;53.928;18.522;2023-02-02T01:51:54;3.70;99.90
22321;DHT22;11328;53.928;18.522;2023-02-02T01:59:42;3.70;99.90
22321;DHT22;11328;53.928;18.522;2023-02-02T02:02:12;3.80;99.90
22321;DHT22;11328;53.928;18.522;2023-02-02T02:04:40;3.80;99.90
22321;DHT22;11328;53.928;18.522;2023-02-02T02:07:08;3.90;99.90
22321;DHT22;11328;53.928;18.522;2023-02-02T02:09:35;3.90;99.90
22321;DHT22;11328;53.928;18.522;2023-02-02T02:12:02;4.00;99.90
22321;DHT22;11328;53.928;18.522;2023-02-02T02:14:39;4.00;99.90
22321;DHT22;11328;53.928;18.522;2023-02-02T02:42:25;3.70;99.90
22321;DHT22;11328;53.928;18.522;2023-02-02T02:45:00;3.70;99.90
22321;DHT22;11328;53.928;18.522;2023-02-02T02:47:30;3.80;99.90
22321;DHT22;11328;53.928;18.522;2023-02-02T02:49:58;3.90;99.90
22321;DHT22;11328;53.928;18.522;2023-02-02T02:52:24;4.00;99.90
22321;DHT22;11328;53.928;18.522;2023-02-02T02:54:55;4.00;99.90
22321;DHT22;11328;53.928;18.522;2023-02-02T02:57:33;4.10;99.90
22321;DHT22;11328;53.928;18.522;2023-02-02T03:08:36;4.20;99.90
22321;DHT22;11328;53.928;18.522;2023-02-02T03:11:09;4.20;99.90
22321;DHT22;11328;53.928;18.522;2023-02-02T03:13:37;4.10;99.90
22321;DHT22;11328;53.928;18.522;2023-02-02T03:16:07;4.10;99.90
22321;DHT22;11328;53.928;18.522;2023-02-02T03:18:35;4.10;99.90
22321;DHT22;11328;53.928;18.522;2023-02-02T03:21:02;4.00;99.90
22321;DHT22;11328;53.928;18.522;2023-02-02T03:23:29;3.90;99.90
22321;DHT22;11328;53.928;18.522;2023-02-02T03:25:56;3.90;99.90
22321;DHT22;11328;53.928;18.522;2023-02-02T03:28:23;3.90;99.90
22321;DHT22;11328;53.928;18.522;2023-02-02T03:30:51;3.90;99.90
22321;DHT22;11328;53.928;18.522;2023-02-02T03:33:20;3.90;99.90
22321;DHT22;11328;53.928;18.522;2023-02-02T03:35:48;3.90;99.90
22321;DHT22;11328;53.928;18.522;2023-02-02T03:38:15;3.90;99.90
22321;DHT22;11328;53.928;18.522;2023-02-02T03:40:42;3.80;99.90
22321;DHT22;11328;53.928;18.522;2023-02-02T03:43:09;3.80;99.90
22321;DHT22;11328;53.928;18.522;2023-02-02T03:45:36;3.80;99.90
22321;DHT22;11328;53.928;18.522;2023-02-02T03:48:06;3.80;99.90
22321;DHT22;11328;53.928;18.522;2023-02-02T03:50:33;3.80;99.90
22321;DHT22;11328;53.928;18.522;2023-02-02T03:53:00;3.90;99.90
22321;DHT22;11328;53.928;18.522;2023-02-02T03:55:27;3.90;99.90
22321;DHT22;11328;53.928;18.522;2023-02-02T03:57:54;3.90;99.90
22321;DHT22;11328;53.928;18.522;2023-02-02T04:00:21;3.90;99.90
22321;DHT22;11328;53.928;18.522;2023-02-02T04:02:48;4.00;99.90
22321;DHT22;11328;53.928;18.522;2023-02-02T04:05:15;4.00;99.90
22321;DHT22;11328;53.928;18.522;2023-02-02T04:07:42;4.00;99.90
22321;DHT22;11328;53.928;18.522;2023-02-02T04:10:09;4.00;99.90
22321;DHT22;11328;53.928;18.522;2023-02-02T04:12:36;4.00;99.90
22321;DHT22;11328;53.928;18.522;2023-02-02T04:15:03;4.00;99.90
22321;DHT22;11328;53.928;18.522;2023-02-02T04:17:31;4.00;99.90
22321;DHT22;11328;53.928;18.522;2023-02-02T04:19:57;4.00;99.90
22321;DHT22;11328;53.928;18.522;2023-02-02T04:22:25;4.00;99.90
22321;DHT22;11328;53.928;18.522;2023-02-02T04:24:52;4.10;99.90
22321;DHT22;11328;53.928;18.522;2023-02-02T04:27:19;4.00;99.90
22321;DHT22;11328;53.928;18.522;2023-02-02T04:29:46;4.00;99.90
22321;DHT22;11328;53.928;18.522;2023-02-02T04:32:16;4.00;99.90
22321;DHT22;11328;53.928;18.522;2023-02-02T04:34:44;3.90;99.90
22321;DHT22;11328;53.928;18.522;2023-02-02T04:37:11;3.90;99.90
22321;DHT22;11328;53.928;18.522;2023-02-02T04:39:38;4.00;99.90
22321;DHT22;11328;53.928;18.522;2023-02-02T04:42:04;4.00;99.90
22321;DHT22;11328;53.928;18.522;2023-02-02T04:44:31;4.00;99.90
22321;DHT22;11328;53.928;18.522;2023-02-02T04:46:59;4.10;99.90
22321;DHT22;11328;53.928;18.522;2023-02-02T04:49:26;4.10;99.90
22321;DHT22;11328;53.928;18.522;2023-02-02T04:51:52;4.10;99.90
22321;DHT22;11328;53.928;18.522;2023-02-02T04:54:19;4.10;99.90
22321;DHT22;11328;53.928;18.522;2023-02-02T04:56:46;4.10;99.90
22321;DHT22;11328;53.928;18.522;2023-02-02T04:59:13;4.10;99.90
22321;DHT22;11328;53.928;18.522;2023-02-02T05:01:40;4.10;99.90
22321;DHT22;11328;53.928;18.522;2023-02-02T05:04:07;4.20;99.90
22321;DHT22;11328;53.928;18.522;2023-02-02T05:06:34;4.20;99.90
22321;DHT22;11328;53.928;18.522;2023-02-02T05:09:01;4.20;99.90
22321;DHT22;11328;53.928;18.522;2023-02-02T05:11:28;4.10;99.90
22321;DHT22;11328;53.928;18.522;2023-02-02T05:13:56;4.20;99.90
22321;DHT22;11328;53.928;18.522;2023-02-02T05:16:23;4.10;99.90
22321;DHT22;11328;53.928;18.522;2023-02-02T05:18:55;4.10;99.90
22321;DHT22;11328;53.928;18.522;2023-02-02T05:21:23;4.00;99.90
22321;DHT22;11328;53.928;18.522;2023-02-02T05:23:50;4.10;99.90
22321;DHT22;11328;53.928;18.522;2023-02-02T05:26:21;4.00;99.90
22321;DHT22;11328;53.928;18.522;2023-02-02T05:28:50;4.10;99.90
22321;DHT22;11328;53.928;18.522;2023-02-02T05:31:19;4.10;99.90
22321;DHT22;11328;53.928;18.522;2023-02-02T05:33:46;4.00;99.90
22321;DHT22;11328;53.928;18.522;2023-02-02T05:36:13;4.00;99.90
22321;DHT22;11328;53.928;18.522;2023-02-02T05:38:40;4.00;99.90
22321;DHT22;11328;53.928;18.522;2023-02-02T05:41:07;4.00;99.90
22321;DHT22;11328;53.928;18.522;2023-02-02T05:43:34;4.00;99.90
22321;DHT22;11328;53.928;18.522;2023-02-02T05:46:01;3.90;99.90
22321;DHT22;11328;53.928;18.522;2023-02-02T05:48:28;3.90;99.90
22321;DHT22;11328;53.928;18.522;2023-02-02T05:51:10;3.90;99.90
22321;DHT22;11328;53.928;18.522;2023-02-02T05:53:40;3.90;99.90
22321;DHT22;11328;53.928;18.522;2023-02-02T05:56:07;3.80;99.90
22321;DHT22;11328;53.928;18.522;2023-02-02T05:58:34;3.80;99.90
22321;DHT22;11328;53.928;18.522;2023-02-02T06:01:01;3.70;99.90
22321;DHT22;11328;53.928;18.522;2023-02-02T06:03:28;3.70;99.90
22321;DHT22;11328;53.928;18.522;2023-02-02T06:05:55;3.70;99.90
22321;DHT22;11328;53.928;18.522;2023-02-02T06:08:22;3.70;99.90
22321;DHT22;11328;53.928;18.522;2023-02-02T06:10:49;3.70;99.90
22321;DHT22;11328;53.928;18.522;2023-02-02T06:13:16;3.80;99.90
22321;DHT22;11328;53.928;18.522;2023-02-02T06:15:42;3.80;99.90
22321;DHT22;11328;53.928;18.522;2023-02-02T06:18:09;3.80;99.90
22321;DHT22;11328;53.928;18.522;2023-02-02T06:20:36;3.80;99.90
22321;DHT22;11328;53.928;18.522;2023-02-02T06:23:04;3.70;99.90
22321;DHT22;11328;53.928;18.522;2023-02-02T06:25:31;3.80;99.90
22321;DHT22;11328;53.928;18.522;2023-02-02T06:28:00;3.70;99.90
22321;DHT22;11328;53.928;18.522;2023-02-02T06:30:27;3.70;99.90
22321;DHT22;11328;53.928;18.522;2023-02-02T06:32:54;3.70;99.90
22321;DHT22;11328;53.928;18.522;2023-02-02T06:35:20;3.70;99.90
22321;DHT22;11328;53.928;18.522;2023-02-02T06:37:48;3.80;99.90
22321;DHT22;11328;53.928;18.522;2023-02-02T06:40:15;3.80;99.90
22321;DHT22;11328;53.928;18.522;2023-02-02T06:42:42;3.80;99.90
22321;DHT22;11328;53.928;18.522;2023-02-02T06:45:10;3.80;99.90
22321;DHT22;11328;53.928;18.522;2023-02-02T06:47:37;3.90;99.90
22321;DHT22;11328;53.928;18.522;2023-02-02T06:50:04;3.90;99.90
22321;DHT22;11328;53.928;18.522;2023-02-02T06:52:31;3.90;99.90
22321;DHT22;11328;53.928;18.522;2023-02-02T06:54:57;3.80;99.90
22321;DHT22;11328;53.928;18.522;2023-02-02T06:57:24;3.80;99.90
22321;DHT22;11328;53.928;18.522;2023-02-02T06:59:51;3.90;99.90
22321;DHT22;11328;53.928;18.522;2023-02-02T07:02:18;3.90;99.90
22321;DHT22;11328;53.928;18.522;2023-02-02T07:04:45;3.90;99.90
22321;DHT22;11328;53.928;18.522;2023-02-02T07:07:12;3.90;99.90
22321;DHT22;11328;53.928;18.522;2023-02-02T07:09:39;3.80;99.90
22321;DHT22;11328;53.928;18.522;2023-02-02T07:12:06;3.80;99.90
22321;DHT22;11328;53.928;18.522;2023-02-02T07:14:33;3.90;99.90
22321;DHT22;11328;53.928;18.522;2023-02-02T07:17:00;3.90;99.90
22321;DHT22;11328;53.928;18.522;2023-02-02T07:19:26;3.90;99.90
22321;DHT22;11328;53.928;18.522;2023-02-02T07:21:56;3.90;99.90
22321;DHT22;11328;53.928;18.522;2023-02-02T07:24:22;3.90;99.90
22321;DHT22;11328;53.928;18.522;2023-02-02T07:26:49;3.90;99.90
22321;DHT22;11328;53.928;18.522;2023-02-02T07:29:16;4.00;99.90
22321;DHT22;11328;53.928;18.522;2023-02-02T07:31:43;4.00;99.90
22321;DHT22;11328;53.928;18.522;2023-02-02T07:34:13;4.00;99.90
22321;DHT22;11328;53.928;18.522;2023-02-02T07:36:40;4.10;99.90
22321;DHT22;11328;53.928;18.522;2023-02-02T07:39:07;4.20;99.90
22321;DHT22;11328;53.928;18.522;2023-02-02T07:41:35;4.20;99.90
22321;DHT22;11328;53.928;18.522;2023-02-02T07:44:03;4.20;99.90
22321;DHT22;11328;53.928;18.522;2023-02-02T07:46:31;4.30;99.90
22321;DHT22;11328;53.928;18.522;2023-02-02T07:48:58;4.30;99.90
22321;DHT22;11328;53.928;18.522;2023-02-02T07:51:25;4.30;99.90
22321;DHT22;11328;53.928;18.522;2023-02-02T07:53:53;4.30;99.90
22321;DHT22;11328;53.928;18.522;2023-02-02T07:56:26;4.50;99.90
22321;DHT22;11328;53.928;18.522;2023-02-02T07:58:56;4.50;99.90
22321;DHT22;11328;53.928;18.522;2023-02-02T08:01:24;4.50;99.90
22321;DHT22;11328;53.928;18.522;2023-02-02T08:03:55;4.60;99.90
22321;DHT22;11328;53.928;18.522;2023-02-02T08:06:26;4.50;99.90
22321;DHT22;11328;53.928;18.522;2023-02-02T08:08:55;4.50;99.90
22321;DHT22;11328;53.928;18.522;2023-02-02T08:11:24;4.50;99.90
22321;DHT22;11328;53.928;18.522;2023-02-02T08:13:54;4.50;99.90
22321;DHT22;11328;53.928;18.522;2023-02-02T08:16:25;4.60;99.90
22321;DHT22;11328;53.928;18.522;2023-02-02T08:18:53;4.50;99.90
22321;DHT22;11328;53.928;18.522;2023-02-02T08:21:21;4.60;99.90
22321;DHT22;11328;53.928;18.522;2023-02-02T08:23:48;4.60;99.90
22321;DHT22;11328;53.928;18.522;2023-02-02T08:26:25;4.60;99.90
22321;DHT22;11328;53.928;18.522;2023-02-02T08:29:02;4.50;99.90
22321;DHT22;11328;53.928;18.522;2023-02-02T08:31:36;4.40;99.90
22321;DHT22;11328;53.928;18.522;2023-02-02T08:34:07;4.50;99.90
22321;DHT22;11328;53.928;18.522;2023-02-02T08:36:34;4.50;99.90
22321;DHT22;11328;53.928;18.522;2023-02-02T08:39:04;4.50;99.90
22321;DHT22;11328;53.928;18.522;2023-02-02T08:41:33;4.50;99.90
22321;DHT22;11328;53.928;18.522;2023-02-02T08:44:00;4.60;99.90
22321;DHT22;11328;53.928;18.522;2023-02-02T08:46:27;4.60;99.90
22321;DHT22;11328;53.928;18.522;2023-02-02T08:48:54;4.60;99.90
22321;DHT22;11328;53.928;18.522;2023-02-02T08:51:21;4.60;99.90
22321;DHT22;11328;53.928;18.522;2023-02-02T08:53:48;4.60;99.90
22321;DHT22;11328;53.928;18.522;2023-02-02T08:56:18;4.60;99.90
22321;DHT22;11328;53.928;18.522;2023-02-02T08:58:52;4.60;99.90
22321;DHT22;11328;53.928;18.522;2023-02-02T09:01:26;4.70;99.90
22321;DHT22;11328;53.928;18.522;2023-02-02T09:03:56;4.90;99.90
22321;DHT22;11328;53.928;18.522;2023-02-02T09:06:38;5.10;99.90
22321;DHT22;11328;53.928;18.522;2023-02-02T09:09:09;5.10;99.90
22321;DHT22;11328;53.928;18.522;2023-02-02T09:11:38;5.00;99.90
22321;DHT22;11328;53.928;18.522;2023-02-02T09:14:06;5.10;99.90
22321;DHT22;11328;53.928;18.522;2023-02-02T09:16:34;5.10;99.90
22321;DHT22;11328;53.928;18.522;2023-02-02T09:19:02;5.10;99.90
22321;DHT22;11328;53.928;18.522;2023-02-02T09:21:29;5.10;99.90
22321;DHT22;11328;53.928;18.522;2023-02-02T09:23:56;4.90;99.90
22321;DHT22;11328;53.928;18.522;2023-02-02T09:26:28;4.90;99.90
22321;DHT22;11328;53.928;18.522;2023-02-02T09:29:00;4.80;99.90
22321;DHT22;11328;53.928;18.522;2023-02-02T09:31:33;4.60;99.90
22321;DHT22;11328;53.928;18.522;2023-02-02T09:34:02;4.60;99.90
22321;DHT22;11328;53.928;18.522;2023-02-02T09:36:34;4.40;99.90
22321;DHT22;11328;53.928;18.522;2023-02-02T09:39:02;4.40;99.90
22321;DHT22;11328;53.928;18.522;2023-02-02T09:47:26;4.30;99.90
22321;DHT22;11328;53.928;18.522;2023-02-02T09:56:31;4.50;99.90
22321;DHT22;11328;53.928;18.522;2023-02-02T09:59:07;4.50;99.90
22321;DHT22;11328;53.928;18.522;2023-02-02T10:01:49;4.50;99.90
22321;DHT22;11328;53.928;18.522;2023-02-02T10:04:35;4.50;99.90
22321;DHT22;11328;53.928;18.522;2023-02-02T10:07:12;4.60;99.90
22321;DHT22;11328;53.928;18.522;2023-02-02T10:09:48;4.60;99.90
22321;DHT22;11328;53.928;18.522;2023-02-02T10:12:41;4.70;99.90
22321;DHT22;11328;53.928;18.522;2023-02-02T10:24:21;4.80;99.90
22321;DHT22;11328;53.928;18.522;2023-02-02T10:27:15;4.70;99.90
22321;DHT22;11328;53.928;18.522;2023-02-02T10:30:00;4.70;99.90
22321;DHT22;11328;53.928;18.522;2023-02-02T10:38:36;4.60;99.90
22321;DHT22;11328;53.928;18.522;2023-02-02T10:41:21;4.60;99.90
22321;DHT22;11328;53.928;18.522;2023-02-02T10:44:09;4.70;99.90
22321;DHT22;11328;53.928;18.522;2023-02-02T10:46:51;4.80;99.90
22321;DHT22;11328;53.928;18.522;2023-02-02T10:49:34;4.80;99.90
22321;DHT22;11328;53.928;18.522;2023-02-02T10:54:49;4.80;99.90
22321;DHT22;11328;53.928;18.522;2023-02-02T10:57:49;5.00;99.90
22321;DHT22;11328;53.928;18.522;2023-02-02T11:03:16;4.80;99.90
22321;DHT22;11328;53.928;18.522;2023-02-02T11:05:45;4.80;99.90
22321;DHT22;11328;53.928;18.522;2023-02-02T11:08:45;4.80;99.90
22321;DHT22;11328;53.928;18.522;2023-02-02T11:11:33;4.60;99.90
22321;DHT22;11328;53.928;18.522;2023-02-02T11:16:40;4.70;99.90
22321;DHT22;11328;53.928;18.522;2023-02-02T11:21:53;4.60;99.90
22321;DHT22;11328;53.928;18.522;2023-02-02T11:24:32;4.60;99.90
22321;DHT22;11328;53.928;18.522;2023-02-02T11:27:25;4.80;99.90
22321;DHT22;11328;53.928;18.522;2023-02-02T11:29:58;4.70;99.90
22321;DHT22;11328;53.928;18.522;2023-02-02T11:32:35;4.90;99.90
22321;DHT22;11328;53.928;18.522;2023-02-02T11:37:32;5.00;99.90
22321;DHT22;11328;53.928;18.522;2023-02-02T11:40:30;5.00;99.90
22321;DHT22;11328;53.928;18.522;2023-02-02T11:43:04;5.00;99.90
22321;DHT22;11328;53.928;18.522;2023-02-02T11:45:41;5.00;99.90
22321;DHT22;11328;53.928;18.522;2023-02-02T11:48:17;5.00;99.90
22321;DHT22;11328;53.928;18.522;2023-02-02T11:50:54;5.00;99.90
22321;DHT22;11328;53.928;18.522;2023-02-02T11:56:22;4.90;99.90
22321;DHT22;11328;53.928;18.522;2023-02-02T11:58:51;4.90;99.90
22321;DHT22;11328;53.928;18.522;2023-02-02T12:01:28;5.00;99.90
22321;DHT22;11328;53.928;18.522;2023-02-02T12:06:41;5.00;99.90
22321;DHT22;11328;53.928;18.522;2023-02-02T12:09:29;5.00;99.90
22321;DHT22;11328;53.928;18.522;2023-02-02T12:15:14;5.00;99.90
22321;DHT22;11328;53.928;18.522;2023-02-02T12:18:17;4.80;99.90
22321;DHT22;11328;53.928;18.522;2023-02-02T12:23:58;4.40;99.90
22321;DHT22;11328;53.928;18.522;2023-02-02T12:26:32;4.30;99.90
22321;DHT22;11328;53.928;18.522;2023-02-02T12:34:56;4.50;99.90
22321;DHT22;11328;53.928;18.522;2023-02-02T12:43:37;4.60;99.90
22321;DHT22;11328;53.928;18.522;2023-02-02T12:55:24;4.50;99.90
22321;DHT22;11328;53.928;18.522;2023-02-02T13:12:56;4.30;99.90
22321;DHT22;11328;53.928;18.522;2023-02-02T13:15:32;4.10;99.90
22321;DHT22;11328;53.928;18.522;2023-02-02T13:18:25;4.00;99.90
22321;DHT22;11328;53.928;18.522;2023-02-02T13:20:59;3.90;99.90
22321;DHT22;11328;53.928;18.522;2023-02-02T13:24:05;3.90;99.90
22321;DHT22;11328;53.928;18.522;2023-02-02T13:26:31;3.80;99.90
22321;DHT22;11328;53.928;18.522;2023-02-02T13:29:18;3.90;99.90
22321;DHT22;11328;53.928;18.522;2023-02-02T13:32:22;4.10;99.90
22321;DHT22;11328;53.928;18.522;2023-02-02T13:38:28;3.90;99.90
22321;DHT22;11328;53.928;18.522;2023-02-02T13:41:01;3.60;99.90
22321;DHT22;11328;53.928;18.522;2023-02-02T13:49:22;3.10;99.90
22321;DHT22;11328;53.928;18.522;2023-02-02T14:00:50;2.90;99.90
22321;DHT22;11328;53.928;18.522;2023-02-02T14:03:26;2.70;99.90
22321;DHT22;11328;53.928;18.522;2023-02-02T14:06:17;2.70;99.90
22321;DHT22;11328;53.928;18.522;2023-02-02T14:09:02;2.60;99.90
22321;DHT22;11328;53.928;18.522;2023-02-02T14:11:34;2.70;99.90
22321;DHT22;11328;53.928;18.522;2023-02-02T14:14:19;2.70;99.90
22321;DHT22;11328;53.928;18.522;2023-02-02T14:19:49;2.70;99.90
22321;DHT22;11328;53.928;18.522;2023-02-02T14:22:47;2.70;99.90
22321;DHT22;11328;53.928;18.522;2023-02-02T14:28:11;2.80;99.90
22321;DHT22;11328;53.928;18.522;2023-02-02T14:30:39;2.80;99.90
22321;DHT22;11328;53.928;18.522;2023-02-02T14:33:22;2.80;99.90
22321;DHT22;11328;53.928;18.522;2023-02-02T14:35:55;2.90;99.90
22321;DHT22;11328;53.928;18.522;2023-02-02T14:41:14;2.90;99.90
22321;DHT22;11328;53.928;18.522;2023-02-02T14:44:06;2.80;99.90
22321;DHT22;11328;53.928;18.522;2023-02-02T14:46:37;2.80;99.90
22321;DHT22;11328;53.928;18.522;2023-02-02T14:49:09;2.80;99.90
22321;DHT22;11328;53.928;18.522;2023-02-02T14:51:52;2.70;99.90
22321;DHT22;11328;53.928;18.522;2023-02-02T14:54:33;2.80;99.90
22321;DHT22;11328;53.928;18.522;2023-02-02T14:57:25;2.80;99.90
22321;DHT22;11328;53.928;18.522;2023-02-02T14:59:54;2.80;99.90
22321;DHT22;11328;53.928;18.522;2023-02-02T15:08:12;2.90;99.90
22321;DHT22;11328;53.928;18.522;2023-02-02T15:13:33;2.90;99.90
22321;DHT22;11328;53.928;18.522;2023-02-02T15:16:11;2.80;99.90
22321;DHT22;11328;53.928;18.522;2023-02-02T15:18:55;2.90;99.90
22321;DHT22;11328;53.928;18.522;2023-02-02T15:21:30;2.90;99.90
22321;DHT22;11328;53.928;18.522;2023-02-02T15:24:03;2.80;99.90
22321;DHT22;11328;53.928;18.522;2023-02-02T15:26:42;2.80;99.90
22321;DHT22;11328;53.928;18.522;2023-02-02T15:32:14;2.80;99.90
22321;DHT22;11328;53.928;18.522;2023-02-02T15:35:14;2.70;99.90
22321;DHT22;11328;53.928;18.522;2023-02-02T15:37:48;2.60;99.90
22321;DHT22;11328;53.928;18.522;2023-02-02T15:40:24;2.60;99.90
22321;DHT22;11328;53.928;18.522;2023-02-02T15:42:59;2.60;99.90
22321;DHT22;11328;53.928;18.522;2023-02-02T15:45:40;2.60;99.90
22321;DHT22;11328;53.928;18.522;2023-02-02T15:48:29;2.60;99.90
22321;DHT22;11328;53.928;18.522;2023-02-02T15:51:04;2.70;99.90
22321;DHT22;11328;53.928;18.522;2023-02-02T15:58:53;2.60;99.90
22321;DHT22;11328;53.928;18.522;2023-02-02T16:01:22;2.60;99.90
22321;DHT22;11328;53.928;18.522;2023-02-02T16:06:59;2.60;99.90
22321;DHT22;11328;53.928;18.522;2023-02-02T16:09:32;2.50;99.90
22321;DHT22;11328;53.928;18.522;2023-02-02T16:12:01;2.50;99.90
22321;DHT22;11328;53.928;18.522;2023-02-02T16:14:32;2.50;99.90
22321;DHT22;11328;53.928;18.522;2023-02-02T16:17:29;2.40;99.90
22321;DHT22;11328;53.928;18.522;2023-02-02T16:20:10;2.40;99.90
22321;DHT22;11328;53.928;18.522;2023-02-02T16:22:41;2.30;99.90
22321;DHT22;11328;53.928;18.522;2023-02-02T16:25:15;2.30;99.90
22321;DHT22;11328;53.928;18.522;2023-02-02T16:27:46;2.30;99.90
22321;DHT22;11328;53.928;18.522;2023-02-02T16:30:29;2.20;99.90
22321;DHT22;11328;53.928;18.522;2023-02-02T16:36:26;2.20;99.90
22321;DHT22;11328;53.928;18.522;2023-02-02T16:38:57;2.10;99.90
22321;DHT22;11328;53.928;18.522;2023-02-02T16:41:31;2.10;99.90
22321;DHT22;11328;53.928;18.522;2023-02-02T16:47:01;2.10;99.90
22321;DHT22;11328;53.928;18.522;2023-02-02T16:49:31;2.10;99.90
22321;DHT22;11328;53.928;18.522;2023-02-02T16:52:19;2.10;99.90
22321;DHT22;11328;53.928;18.522;2023-02-02T16:54:55;2.10;99.90
22321;DHT22;11328;53.928;18.522;2023-02-02T16:57:29;2.00;99.90
22321;DHT22;11328;53.928;18.522;2023-02-02T17:00:03;2.10;99.90
22321;DHT22;11328;53.928;18.522;2023-02-02T17:02:37;2.10;99.90
22321;DHT22;11328;53.928;18.522;2023-02-02T17:05:20;1.90;99.90
22321;DHT22;11328;53.928;18.522;2023-02-02T17:10:27;2.00;99.90
22321;DHT22;11328;53.928;18.522;2023-02-02T17:12:58;2.10;99.90
22321;DHT22;11328;53.928;18.522;2023-02-02T17:15:30;2.10;99.90
22321;DHT22;11328;53.928;18.522;2023-02-02T17:18:03;2.10;99.90
22321;DHT22;11328;53.928;18.522;2023-02-02T17:20:31;2.20;99.90
22321;DHT22;11328;53.928;18.522;2023-02-02T17:23:05;2.10;99.90
22321;DHT22;11328;53.928;18.522;2023-02-02T17:25:44;2.20;99.90
22321;DHT22;11328;53.928;18.522;2023-02-02T17:28:17;2.10;99.90
22321;DHT22;11328;53.928;18.522;2023-02-02T17:30:55;2.10;99.90
22321;DHT22;11328;53.928;18.522;2023-02-02T17:33:25;2.10;99.90
22321;DHT22;11328;53.928;18.522;2023-02-02T17:35:53;2.10;99.90
22321;DHT22;11328;53.928;18.522;2023-02-02T17:38:23;2.10;99.90
22321;DHT22;11328;53.928;18.522;2023-02-02T17:40:52;2.10;99.90
22321;DHT22;11328;53.928;18.522;2023-02-02T17:43:28;2.20;99.90
22321;DHT22;11328;53.928;18.522;2023-02-02T17:45:58;2.20;99.90
22321;DHT22;11328;53.928;18.522;2023-02-02T17:48:25;2.20;99.90
22321;DHT22;11328;53.928;18.522;2023-02-02T17:50:52;2.20;99.90
22321;DHT22;11328;53.928;18.522;2023-02-02T17:53:20;2.20;99.90
22321;DHT22;11328;53.928;18.522;2023-02-02T17:55:49;2.30;99.90
22321;DHT22;11328;53.928;18.522;2023-02-02T17:58:17;2.20;99.90
22321;DHT22;11328;53.928;18.522;2023-02-02T18:00:50;2.20;99.90
22321;DHT22;11328;53.928;18.522;2023-02-02T18:04:31;2.20;99.90
22321;DHT22;11328;53.928;18.522;2023-02-02T18:06:59;1.90;99.90
22321;DHT22;11328;53.928;18.522;2023-02-02T18:09:26;1.90;99.90
22321;DHT22;11328;53.928;18.522;2023-02-02T18:11:55;1.90;99.90
22321;DHT22;11328;53.928;18.522;2023-02-02T18:14:50;2.00;99.90
22321;DHT22;11328;53.928;18.522;2023-02-02T18:17:17;1.80;99.90
22321;DHT22;11328;53.928;18.522;2023-02-02T18:19:44;1.80;99.90
22321;DHT22;11328;53.928;18.522;2023-02-02T18:22:12;1.80;99.90
22321;DHT22;11328;53.928;18.522;2023-02-02T18:24:40;1.80;99.90
22321;DHT22;11328;53.928;18.522;2023-02-02T18:27:07;1.70;99.90
22321;DHT22;11328;53.928;18.522;2023-02-02T18:29:35;1.60;99.90
22321;DHT22;11328;53.928;18.522;2023-02-02T18:32:02;1.60;99.90
22321;DHT22;11328;53.928;18.522;2023-02-02T18:34:31;1.60;99.90
22321;DHT22;11328;53.928;18.522;2023-02-02T18:36:59;1.60;99.90
22321;DHT22;11328;53.928;18.522;2023-02-02T18:39:27;1.60;99.90
22321;DHT22;11328;53.928;18.522;2023-02-02T18:41:55;1.50;99.90
22321;DHT22;11328;53.928;18.522;2023-02-02T18:44:23;1.50;99.90
22321;DHT22;11328;53.928;18.522;2023-02-02T18:46:53;1.50;99.90
22321;DHT22;11328;53.928;18.522;2023-02-02T18:49:20;1.40;99.90
22321;DHT22;11328;53.928;18.522;2023-02-02T18:51:47;1.40;99.90
22321;DHT22;11328;53.928;18.522;2023-02-02T18:54:15;1.30;99.90
22321;DHT22;11328;53.928;18.522;2023-02-02T18:56:44;1.30;99.90
22321;DHT22;11328;53.928;18.522;2023-02-02T18:59:12;1.30;99.90
22321;DHT22;11328;53.928;18.522;2023-02-02T19:01:42;1.30;99.90
22321;DHT22;11328;53.928;18.522;2023-02-02T19:04:18;1.30;99.90